< Typhoon 196905 1969 Season Typhoon 196907 >
Typhoon 196906 (WINNIE)
General InformationTrack Information on Google Maps || Disaster Info.ResourceGoogle EarthGE AnimationAtom FeedGeoJSON
Detalied Best Track (Time Zone = UTC)
Year Month Day Hour Lat. Long. Pressure (hPa) Wind (kt) Class Image Chart
1969 7 26 12 12.1 145.1 1010 0 2 -- Chart
1969 7 26 18 12.8 144.5 1008 0 2 -- Chart
1969 7 27 00 13.2 143.8 1010 0 2 -- Chart
1969 7 27 06 13.5 142.9 1008 0 2 -- Chart
1969 7 27 12 13.5 142.0 1010 0 2 -- Chart
1969 7 27 18 13.5 141.0 1008 0 2 -- Chart
1969 7 28 00 13.5 140.0 1008 0 2 -- Chart
1969 7 28 06 13.7 139.3 1006 0 2 -- Chart
1969 7 28 12 14.2 138.5 1008 0 2 -- Chart
1969 7 28 18 14.6 137.7 1004 0 2 -- Chart
1969 7 29 00 15.0 137.0 1004 0 2 -- Chart
1969 7 29 06 15.3 136.1 1004 0 2 -- Chart
1969 7 29 12 15.6 135.2 1002 0 2 -- Chart
1969 7 29 18 15.9 134.2 1000 0 2 -- Chart
1969 7 30 00 16.1 133.3 992 0 9 -- Chart
1969 7 30 06 17.0 132.1 988 0 9 -- Chart
1969 7 30 12 18.0 130.7 992 0 9 -- Chart
1969 7 30 18 18.6 129.1 994 0 9 -- Chart
1969 7 31 00 18.8 127.7 995 0 9 -- Chart
1969 7 31 06 19.0 126.7 995 0 9 -- Chart
1969 7 31 12 19.5 125.5 1000 0 2 -- Chart
1969 7 31 18 19.6 124.5 1000 0 2 -- Chart
1969 8 1 00 20.0 123.5 1000 0 2 -- Chart
1969 8 1 06 20.3 123.0 1000 0 2 -- Chart
1969 8 1 12 20.5 122.5 1000 0 2 -- Chart
1969 8 1 18 20.7 121.9 1000 0 2 -- Chart
1969 8 2 00 21.0 121.3 1000 0 2 -- Chart
1969 8 2 06 21.0 120.4 999 0 2 -- Chart
1969 8 2 12 21.0 119.0 998 0 2 -- Chart
Japan Meteorological Agency Best Track Data | Correction Date : 1989-06-01
< Typhoon 196905 1969 Season Typhoon 196907 >

Help